Time;durP1;ratioP1;P1;durP2;ratioP2;P2;SDS_P1;SDS_P2;PMS_P1;PMS_P2;Temp;Humidity;BMP_temperature;BMP_pressure;BME280_temperature;BME280_humidity;BME280_pressure;Samples;Min_cycle;Max_cycle;Signal;HPM_P1;HPM_P2
2021/12/11 00:01:46;;;;;;;;;;;;;;;17.81;68.66;100154.56;5114652;28;1583;-68
2021/12/11 00:04:15;;;;;;;;;;;;;;;17.80;68.67;100152.88;5114552;28;1901;-66
2021/12/11 00:06:44;;;;;;;;;;;;;;;17.89;68.43;100165.44;5115961;28;985;-68
2021/12/11 00:09:12;;;;;;;;;;;;;;;17.83;68.86;100160.66;5113900;28;1566;-68
2021/12/11 00:11:39;;;;;;;;;;;;;;;17.79;68.74;100156.53;5114059;28;1478;-66
2021/12/11 00:14:09;;;;;;;;;;;;;;;17.86;68.59;100173.72;5114642;28;1488;-66
2021/12/11 00:16:37;;;;;;;;;;;;;;;17.88;68.62;100170.91;5114144;28;1575;-66
2021/12/11 00:19:06;;;;;;;;;;;;;;;17.89;68.53;100161.91;5114306;28;1496;-66
2021/12/11 00:21:33;;;;;;;;;;;;;;;17.87;68.25;100174.59;5115346;28;1019;-66
2021/12/11 00:24:01;;;;;;;;;;;;;;;17.90;68.32;100187.66;5113179;28;1978;-66
2021/12/11 00:26:30;;;;;;;;;;;;;;;17.93;68.31;100199.94;5113995;28;1611;-66
2021/12/11 00:28:58;;;;;;;;;;;;;;;17.95;68.32;100192.59;5114301;28;1567;-68
2021/12/11 00:31:26;;;;;;;;;;;;;;;17.98;67.96;100198.50;5112616;28;1461;-66
2021/12/11 00:33:53;;;;;;;;;;;;;;;17.91;68.43;100208.09;5111108;28;1404;-66
2021/12/11 00:36:21;;;;;;;;;;;;;;;18.01;67.88;100221.47;5114422;28;1042;-66
2021/12/11 00:38:50;;;;;;;;;;;;;;;17.92;68.40;100220.47;5111861;28;1577;-66
2021/12/11 00:41:18;;;;;;;;;;;;;;;17.96;68.17;100229.06;5113087;28;1480;-66
2021/12/11 00:43:45;;;;;;;;;;;;;;;17.87;68.43;100234.28;5113611;28;1906;-67
2021/12/11 00:46:14;;;;;;;;;;;;;;;17.86;68.65;100243.28;5112793;28;1500;-66
2021/12/11 00:48:42;;;;;;;;;;;;;;;17.84;68.77;100247.91;5113925;28;1630;-67
2021/12/11 00:51:12;;;;;;;;;;;;;;;17.94;68.23;100255.09;5106151;28;963;-67
2021/12/11 00:53:40;;;;;;;;;;;;;;;17.87;68.74;100247.66;5112650;28;1554;-67
2021/12/11 00:56:10;;;;;;;;;;;;;;;17.89;68.39;100248.34;5113244;28;1567;-66
2021/12/11 00:58:37;;;;;;;;;;;;;;;18.05;67.79;100250.47;5112721;28;1634;-67
2021/12/11 01:01:10;;;;;;;;;;;;;;;18.14;67.51;100261.28;5113301;28;1567;-66
2021/12/11 01:03:38;;;;;;;;;;;;;;;18.29;67.23;100260.72;5113425;28;1883;-67
2021/12/11 01:06:09;;;;;;;;;;;;;;;18.32;67.04;100251.53;5114836;28;978;-66
2021/12/11 01:08:37;;;;;;;;;;;;;;;18.16;67.78;100262.00;5112898;28;1538;-68
2021/12/11 01:11:07;;;;;;;;;;;;;;;18.23;67.80;100253.25;5112993;28;1514;-67
2021/12/11 01:13:36;;;;;;;;;;;;;;;18.16;67.77;100244.09;5112666;28;1515;-66
2021/12/11 01:16:11;;;;;;;;;;;;;;;18.18;67.63;100244.81;5112867;28;1401;-67
2021/12/11 01:18:39;;;;;;;;;;;;;;;18.22;67.20;100238.19;5104841;28;1703;-66
2021/12/11 01:21:26;;;;;;;;;;;;;;;18.25;66.60;100253.97;5114384;28;1176;-67
2021/12/11 01:24:09;;;;;;;;;;;;;;;18.12;67.59;100266.78;5111498;28;1910;-67
2021/12/11 01:26:37;;;;;;;;;;;;;;;18.12;67.71;100268.63;5108877;28;1509;-66
2021/12/11 01:29:05;;;;;;;;;;;;;;;18.06;67.23;100265.53;5112588;28;1477;-66
2021/12/11 01:31:31;;;;;;;;;;;;;;;18.04;67.35;100267.47;5108093;28;1261;-68
2021/12/11 01:33:58;;;;;;;;;;;;;;;18.08;67.73;100265.38;5110012;28;1454;-68
2021/12/11 01:36:26;;;;;;;;;;;;;;;18.15;67.92;100254.97;5114172;28;1068;-67
2021/12/11 01:38:55;;;;;;;;;;;;;;;18.07;67.51;100247.66;5112650;28;1645;-66
2021/12/11 01:41:22;;;;;;;;;;;;;;;18.11;67.28;100246.38;5112232;28;1555;-67
2021/12/11 01:43:49;;;;;;;;;;;;;;;18.11;67.34;100246.38;5112743;28;1905;-66
2021/12/11 01:46:16;;;;;;;;;;;;;;;18.05;67.67;100246.94;5112804;28;1520;-67
2021/12/11 01:48:45;;;;;;;;;;;;;;;18.10;67.24;100247.34;5112401;28;1634;-68
2021/12/11 01:51:16;;;;;;;;;;;;;;;18.10;67.71;100242.00;5105163;28;1058;-68
2021/12/11 01:53:47;;;;;;;;;;;;;;;18.12;67.62;100279.31;5112672;28;1730;-67
2021/12/11 01:56:15;;;;;;;;;;;;;;;18.17;67.21;100279.75;5111776;28;1602;-66
2021/12/11 01:58:43;;;;;;;;;;;;;;;18.08;67.14;100278.75;5110982;28;1563;-68
2021/12/11 02:01:12;;;;;;;;;;;;;;;18.13;67.56;100271.16;5112262;28;1564;-66
2021/12/11 02:03:39;;;;;;;;;;;;;;;18.11;67.74;100257.06;5111970;28;1968;-66
2021/12/11 02:06:06;;;;;;;;;;;;;;;18.11;67.71;100266.94;5113394;28;1090;-67
2021/12/11 02:08:34;;;;;;;;;;;;;;;18.08;67.73;100273.41;5112242;28;1522;-68
2021/12/11 02:11:05;;;;;;;;;;;;;;;18.14;67.49;100262.13;5112041;28;1619;-67
2021/12/11 02:13:39;;;;;;;;;;;;;;;18.20;67.61;100255.38;5112132;28;1436;-66
2021/12/11 02:16:07;;;;;;;;;;;;;;;18.11;67.35;100273.13;5112083;28;1440;-67
2021/12/11 02:18:42;;;;;;;;;;;;;;;18.09;67.67;100286.66;5111783;28;1440;-65
2021/12/11 02:21:11;;;;;;;;;;;;;;;18.15;67.68;100268.34;5104336;28;1011;-66
2021/12/11 02:23:40;;;;;;;;;;;;;;;18.05;67.11;100252.28;5111525;28;1910;-67
2021/12/11 02:26:08;;;;;;;;;;;;;;;18.10;67.41;100266.06;5112760;28;1371;-66
2021/12/11 02:28:39;;;;;;;;;;;;;;;18.13;67.33;100259.63;5112073;28;1477;-66
2021/12/11 02:31:08;;;;;;;;;;;;;;;18.21;67.32;100255.22;5112926;28;984;-67
2021/12/11 02:33:38;;;;;;;;;;;;;;;18.08;67.48;100246.66;5111403;28;1454;-66
2021/12/11 02:36:10;;;;;;;;;;;;;;;18.02;67.64;100241.88;5112255;28;1762;-68
2021/12/11 02:38:39;;;;;;;;;;;;;;;18.15;67.43;100241.59;5111481;28;1594;-66
2021/12/11 02:41:08;;;;;;;;;;;;;;;18.19;67.47;100257.22;5111710;28;1635;-67
2021/12/11 02:43:38;;;;;;;;;;;;;;;18.13;67.45;100244.41;5111914;28;1914;-67
2021/12/11 02:46:07;;;;;;;;;;;;;;;18.12;67.47;100229.31;5111913;28;1433;-67
2021/12/11 02:48:35;;;;;;;;;;;;;;;18.06;67.81;100233.44;5111984;28;1466;-67
2021/12/11 02:51:06;;;;;;;;;;;;;;;18.19;67.09;100209.03;5113155;28;967;-66
2021/12/11 02:53:34;;;;;;;;;;;;;;;18.18;67.21;100215.38;5111511;28;1867;-67
2021/12/11 02:56:05;;;;;;;;;;;;;;;18.11;67.23;100214.28;5107848;28;1489;-68
2021/12/11 02:58:37;;;;;;;;;;;;;;;18.25;67.10;100213.81;5111983;28;1614;-67
2021/12/11 03:04:34;;;;;;;;;;;;;;;18.08;67.57;100219.88;5000869;28;2332;-44
2021/12/11 03:07:07;;;;;;;;;;;;;;;18.16;67.23;100203.97;5013781;28;2036;-43
2021/12/11 03:09:34;;;;;;;;;;;;;;;18.11;68.09;100208.91;5013678;28;1067;-46
2021/12/11 03:12:03;;;;;;;;;;;;;;;17.99;67.45;100210.06;5021529;28;1520;-43
2021/12/11 03:14:30;;;;;;;;;;;;;;;18.17;67.59;100224.41;5022572;28;1930;-45
2021/12/11 03:16:57;;;;;;;;;;;;;;;18.06;67.68;100228.09;5023891;28;1994;-43
2021/12/11 03:19:25;;;;;;;;;;;;;;;18.13;67.47;100233.69;5024798;28;1646;-43
2021/12/11 03:21:52;;;;;;;;;;;;;;;18.15;67.54;100230.88;5032325;28;990;-45
2021/12/11 03:24:18;;;;;;;;;;;;;;;18.13;67.43;100228.34;5022056;28;1915;-43
2021/12/11 03:26:47;;;;;;;;;;;;;;;18.10;67.56;100233.97;5022437;28;1991;-44
2021/12/11 03:29:13;;;;;;;;;;;;;;;18.22;66.76;100232.84;5002139;28;2156;-44
2021/12/11 03:31:41;;;;;;;;;;;;;;;18.17;67.47;100231.59;5015911;28;1549;-44
2021/12/11 03:34:09;;;;;;;;;;;;;;;18.19;66.80;100237.63;5024267;28;1650;-43
2021/12/11 03:36:36;;;;;;;;;;;;;;;18.07;67.69;100244.97;5022258;28;998;-44
2021/12/11 03:39:06;;;;;;;;;;;;;;;18.08;67.35;100235.94;5022851;28;1922;-44
2021/12/11 03:41:33;;;;;;;;;;;;;;;18.10;67.75;100244.66;5033351;28;1638;-44
2021/12/11 03:44:01;;;;;;;;;;;;;;;17.98;67.90;100253.84;5021295;28;2138;-44
2021/12/11 03:46:28;;;;;;;;;;;;;;;18.09;67.34;100251.88;5019242;28;1967;-46
2021/12/11 03:48:58;;;;;;;;;;;;;;;18.11;67.72;100257.06;5024436;28;1771;-44
2021/12/11 03:51:28;;;;;;;;;;;;;;;18.08;67.58;100250.19;5028179;28;1046;-44
2021/12/11 03:53:54;;;;;;;;;;;;;;;18.10;67.61;100260.72;5024034;28;2001;-46
2021/12/11 03:56:21;;;;;;;;;;;;;;;17.97;67.58;100255.69;5023882;28;1950;-43
2021/12/11 03:58:51;;;;;;;;;;;;;;;18.10;67.54;100276.78;5023644;28;1580;-44
2021/12/11 04:01:22;;;;;;;;;;;;;;;18.02;67.90;100274.81;5018135;28;1673;-43
2021/12/11 04:03:49;;;;;;;;;;;;;;;18.13;67.36;100279.19;5023819;28;1952;-43
2021/12/11 04:06:18;;;;;;;;;;;;;;;18.08;67.58;100292.13;5026744;28;1421;-47
2021/12/11 04:08:44;;;;;;;;;;;;;;;18.08;67.37;100278.75;5024775;28;1784;-43
2021/12/11 04:11:13;;;;;;;;;;;;;;;18.04;67.23;100280.03;5023901;28;1914;-44
2021/12/11 04:13:40;;;;;;;;;;;;;;;18.05;67.28;100287.91;5023386;28;1595;-44
2021/12/11 04:16:08;;;;;;;;;;;;;;;18.00;67.50;100270.59;5016070;28;1576;-44
2021/12/11 04:18:35;;;;;;;;;;;;;;;17.99;67.59;100276.94;5022655;28;1945;-45
2021/12/11 04:21:01;;;;;;;;;;;;;;;17.99;67.58;100284.97;5025240;28;1165;-44
2021/12/11 04:23:29;;;;;;;;;;;;;;;17.96;67.71;100287.91;5026824;28;1977;-43
2021/12/11 04:25:56;;;;;;;;;;;;;;;17.93;67.81;100277.50;5023251;28;2114;-44
2021/12/11 04:28:23;;;;;;;;;;;;;;;17.90;68.06;100273.25;5027378;28;995;-43
2021/12/11 04:30:51;;;;;;;;;;;;;;;17.93;67.68;100281.03;5024522;28;1695;-43
2021/12/11 04:33:18;;;;;;;;;;;;;;;17.93;67.74;100275.66;5018867;28;1840;-44
2021/12/11 04:35:45;;;;;;;;;;;;;;;17.96;67.25;100274.53;5022783;28;1596;-44
2021/12/11 04:38:12;;;;;;;;;;;;;;;17.91;67.60;100271.47;5026912;28;1695;-44
2021/12/11 04:40:44;;;;;;;;;;;;;;;17.95;67.49;100280.88;5022150;28;1627;-43
2021/12/11 04:43:15;;;;;;;;;;;;;;;17.99;67.71;100268.91;5012793;28;1789;-44
2021/12/11 04:45:43;;;;;;;;;;;;;;;18.02;67.43;100271.28;5013275;28;1914;-44
2021/12/11 04:48:16;;;;;;;;;;;;;;;18.00;67.19;100276.78;5021209;28;1856;-44
2021/12/11 04:50:49;;;;;;;;;;;;;;;17.97;67.88;100273.56;5019330;28;1019;-44
2021/12/11 04:53:36;;;;;;;;;;;;;;;17.99;67.33;100272.44;5012875;28;1788;-44
2021/12/11 04:56:27;;;;;;;;;;;;;;;17.94;67.60;100265.81;5022885;28;1772;-44
2021/12/11 04:59:11;;;;;;;;;;;;;;;17.96;67.84;100270.03;5022834;28;1798;-44
2021/12/11 05:01:49;;;;;;;;;;;;;;;17.87;67.76;100260.19;5022943;28;1566;-44
2021/12/11 05:07:29;;;;;;;;;;;;;;;17.93;67.58;100248.09;4860541;27;8204220;-44
2021/12/11 05:10:01;;;;;;;;;;;;;;;17.96;67.75;100258.47;5116259;28;1799;-45
2021/12/11 05:12:35;;;;;;;;;;;;;;;18.00;66.71;100246.50;5119498;28;1579;-44
2021/12/11 05:15:04;;;;;;;;;;;;;;;18.02;66.89;100249.88;5114192;28;1789;-45
2021/12/11 05:17:31;;;;;;;;;;;;;;;17.99;67.37;100243.00;5122579;28;1022;-44
2021/12/11 05:19:57;;;;;;;;;;;;;;;18.01;67.41;100224.13;5117096;28;1588;-44
2021/12/11 05:22:25;;;;;;;;;;;;;;;18.00;67.04;100217.91;5129265;28;1756;-44
2021/12/11 05:24:54;;;;;;;;;;;;;;;17.98;67.07;100209.19;5124162;28;2001;-44
2021/12/11 05:27:21;;;;;;;;;;;;;;;17.93;67.71;100210.63;5118743;28;1161;-44
2021/12/11 05:29:48;;;;;;;;;;;;;;;17.93;67.21;100218.66;5125776;28;1980;-44
2021/12/11 05:32:15;;;;;;;;;;;;;;;17.95;67.47;100227.38;5119339;28;1654;-44
2021/12/11 05:34:43;;;;;;;;;;;;;;;17.90;67.44;100235.81;5115086;28;2315;-44
2021/12/11 05:37:10;;;;;;;;;;;;;;;17.91;67.59;100231.34;5125803;28;1527;-45
2021/12/11 05:39:45;;;;;;;;;;;;;;;17.79;67.69;100225.25;5124402;28;1138;-44
2021/12/11 05:42:11;;;;;;;;;;;;;;;17.73;67.90;100240.03;5124369;28;1172;-44
2021/12/11 05:44:38;;;;;;;;;;;;;;;17.88;67.77;100246.66;5118889;28;1845;-45
2021/12/11 05:47:05;;;;;;;;;;;;;;;17.72;68.18;100240.16;5124501;28;1901;-44
2021/12/11 05:49:32;;;;;;;;;;;;;;;17.70;68.11;100245.63;5115504;28;1792;-44
2021/12/11 05:52:00;;;;;;;;;;;;;;;17.72;68.06;100245.50;5127696;28;1476;-44
2021/12/11 05:54:27;;;;;;;;;;;;;;;17.85;67.64;100252.28;5118418;28;1778;-44
2021/12/11 05:56:58;;;;;;;;;;;;;;;17.76;67.96;100257.59;5128073;28;1813;-44
2021/12/11 05:59:25;;;;;;;;;;;;;;;17.70;68.47;100250.97;5119257;28;1614;-44
2021/12/11 06:01:54;;;;;;;;;;;;;;;17.78;67.80;100259.16;5118774;28;1001;-45
2021/12/11 06:04:23;;;;;;;;;;;;;;;17.81;67.17;100234.81;5118128;28;1522;-44
2021/12/11 06:06:50;;;;;;;;;;;;;;;17.73;67.77;100253.38;5116188;28;1981;-45
2021/12/11 06:09:19;;;;;;;;;;;;;;;17.71;67.78;100268.72;5121174;28;1700;-45
2021/12/11 06:11:46;;;;;;;;;;;;;;;17.71;67.93;100282.09;5114579;28;1793;-45
2021/12/11 06:14:28;;;;;;;;;;;;;;;17.69;67.79;100270.69;5117243;28;1674;-44
2021/12/11 06:17:10;;;;;;;;;;;;;;;17.77;67.71;100270.84;5117507;28;2099;-45
2021/12/11 06:19:59;;;;;;;;;;;;;;;17.81;67.56;100268.75;5102431;27;1501;-45
2021/12/11 06:22:28;;;;;;;;;;;;;;;17.85;67.83;100273.69;5098568;27;1464;-45
2021/12/11 06:24:58;;;;;;;;;;;;;;;17.94;67.03;100277.34;5110297;28;1477;-44
2021/12/11 06:27:29;;;;;;;;;;;;;;;17.95;66.89;100249.63;5063651;28;10868;-45
2021/12/11 06:29:58;;;;;;;;;;;;;;;17.87;67.63;100277.06;5016887;28;11145;-45
2021/12/11 06:32:28;;;;;;;;;;;;;;;18.04;66.59;100282.69;5042999;28;1711;-44
2021/12/11 06:35:05;;;;;;;;;;;;;;;18.16;66.46;100292.25;5048715;28;1511;-45
2021/12/11 06:37:33;;;;;;;;;;;;;;;17.97;66.93;100285.09;5044576;28;2326;-45
2021/12/11 06:39:59;;;;;;;;;;;;;;;18.22;65.84;100291.72;5044895;28;1475;-44
2021/12/11 06:42:26;;;;;;;;;;;;;;;18.06;66.36;100280.72;4991604;28;12435;-44
2021/12/11 06:44:52;;;;;;;;;;;;;;;18.05;66.86;100287.09;5050999;28;1277;-45
2021/12/11 06:47:19;;;;;;;;;;;;;;;18.11;66.31;100291.88;5066720;28;1992;-44
2021/12/11 06:49:47;;;;;;;;;;;;;;;17.95;66.99;100294.25;5057960;28;1519;-45
2021/12/11 06:52:15;;;;;;;;;;;;;;;17.89;66.99;100301.84;5062995;28;1736;-43
2021/12/11 06:54:41;;;;;;;;;;;;;;;17.81;67.09;100290.13;5059996;28;1618;-46
2021/12/11 06:57:08;;;;;;;;;;;;;;;17.86;67.01;100293.25;5062896;28;1203;-46
2021/12/11 06:59:35;;;;;;;;;;;;;;;17.86;67.21;100295.94;5059582;28;1564;-44
2021/12/11 07:02:01;;;;;;;;;;;;;;;17.93;66.80;100280.19;5059216;28;1611;-44
2021/12/11 07:04:28;;;;;;;;;;;;;;;17.98;66.87;100280.59;5061192;28;1590;-44
2021/12/11 07:06:56;;;;;;;;;;;;;;;18.07;66.58;100283.28;5072032;28;1906;-44
2021/12/11 07:09:23;;;;;;;;;;;;;;;17.89;66.54;100290.31;5081627;28;1560;-43
2021/12/11 07:11:52;;;;;;;;;;;;;;;17.97;66.88;100298.47;5076277;28;1572;-45
2021/12/11 07:14:19;;;;;;;;;;;;;;;18.08;66.41;100293.00;5089050;28;1582;-43
2021/12/11 07:16:46;;;;;;;;;;;;;;;18.17;66.22;100299.31;5086106;28;1693;-44
2021/12/11 07:19:13;;;;;;;;;;;;;;;18.07;65.90;100293.13;5087808;28;1644;-44
2021/12/11 07:21:44;;;;;;;;;;;;;;;18.07;66.09;100295.81;5088462;28;1292;-43
2021/12/11 07:24:18;;;;;;;;;;;;;;;18.00;66.34;100300.03;5086734;28;1829;-44
2021/12/11 07:26:44;;;;;;;;;;;;;;;17.86;66.70;100299.44;5085643;28;1972;-44
2021/12/11 07:29:13;;;;;;;;;;;;;;;18.09;65.92;100300.03;5087472;28;1761;-44
2021/12/11 07:31:42;;;;;;;;;;;;;;;18.02;65.49;100300.72;5089333;28;1743;-44
2021/12/11 07:34:19;;;;;;;;;;;;;;;17.97;65.98;100324.41;5087940;28;1433;-46
2021/12/11 07:36:46;;;;;;;;;;;;;;;18.04;65.55;100320.16;5087760;28;1278;-44
2021/12/11 07:39:17;;;;;;;;;;;;;;;17.78;66.33;100317.16;5085534;28;1556;-45
2021/12/11 07:41:44;;;;;;;;;;;;;;;17.66;66.65;100321.78;5088408;28;1540;-44
2021/12/11 07:44:10;;;;;;;;;;;;;;;17.66;66.92;100332.47;5090462;28;1865;-43
2021/12/11 07:46:37;;;;;;;;;;;;;;;17.50;67.08;100341.84;5090227;28;1906;-44
2021/12/11 07:49:05;;;;;;;;;;;;;;;17.40;66.89;100326.78;5088793;28;1742;-44
2021/12/11 07:51:32;;;;;;;;;;;;;;;17.47;66.81;100327.94;5092993;28;1291;-44
2021/12/11 07:53:59;;;;;;;;;;;;;;;17.62;66.37;100339.06;5089532;28;1936;-44
2021/12/11 07:56:27;;;;;;;;;;;;;;;17.54;67.04;100333.56;5086710;28;1759;-45
2021/12/11 07:58:55;;;;;;;;;;;;;;;17.49;67.31;100345.50;5091823;28;1489;-45
2021/12/11 08:01:21;;;;;;;;;;;;;;;17.49;67.49;100353.53;5084955;28;1816;-44
2021/12/11 08:03:48;;;;;;;;;;;;;;;17.45;67.82;100348.59;5084613;28;1887;-45
2021/12/11 08:06:14;;;;;;;;;;;;;;;17.46;67.67;100355.63;5081091;28;1902;-45
2021/12/11 08:08:42;;;;;;;;;;;;;;;17.55;67.41;100335.25;5082907;28;2066;-45
2021/12/11 08:11:13;;;;;;;;;;;;;;;17.73;66.81;100333.63;5097795;28;1833;-45
2021/12/11 08:13:43;;;;;;;;;;;;;;;17.68;67.30;100354.56;5080107;28;1673;-44
2021/12/11 08:16:10;;;;;;;;;;;;;;;17.59;67.45;100358.06;5084364;28;1591;-44
2021/12/11 08:18:36;;;;;;;;;;;;;;;17.53;68.04;100346.09;5088430;28;1781;-44
2021/12/11 08:21:03;;;;;;;;;;;;;;;17.41;68.10;100348.03;5083246;28;1082;-45
2021/12/11 08:23:29;;;;;;;;;;;;;;;17.50;67.97;100341.84;5080997;28;1815;-45
2021/12/11 08:25:57;;;;;;;;;;;;;;;17.59;67.99;100337.53;5084509;28;1969;-45
2021/12/11 08:28:26;;;;;;;;;;;;;;;17.47;67.82;100342.13;5074054;28;1086;-45
2021/12/11 08:30:55;;;;;;;;;;;;;;;17.52;67.91;100341.72;5093470;28;1745;-44
2021/12/11 08:33:22;;;;;;;;;;;;;;;17.58;68.02;100330.47;5079532;28;1855;-44
2021/12/11 08:35:49;;;;;;;;;;;;;;;17.83;67.20;100331.84;5085402;28;1554;-45
2021/12/11 08:38:18;;;;;;;;;;;;;;;17.76;67.42;100330.66;5088329;28;2142;-45
2021/12/11 08:40:46;;;;;;;;;;;;;;;17.70;67.43;100332.03;5088650;28;1685;-45
2021/12/11 08:43:13;;;;;;;;;;;;;;;17.66;67.96;100327.13;5084287;28;1764;-45
2021/12/11 08:45:48;;;;;;;;;;;;;;;17.72;67.73;100305.16;5087464;28;1600;-45
2021/12/11 08:48:18;;;;;;;;;;;;;;;17.70;67.89;100307.13;5086390;28;1604;-45
2021/12/11 08:50:45;;;;;;;;;;;;;;;17.83;68.53;100307.75;5089120;28;1358;-45
2021/12/11 08:53:12;;;;;;;;;;;;;;;17.91;68.29;100304.41;5089183;28;1560;-44
2021/12/11 08:55:40;;;;;;;;;;;;;;;17.83;68.76;100302.41;5088255;28;1540;-44
2021/12/11 08:58:09;;;;;;;;;;;;;;;17.85;68.79;100304.94;5086008;28;1563;-45
2021/12/11 09:00:41;;;;;;;;;;;;;;;17.87;68.42;100298.47;5085896;28;1549;-45
2021/12/11 09:03:09;;;;;;;;;;;;;;;17.87;68.14;100292.28;5088996;28;1503;-46
2021/12/11 09:05:39;;;;;;;;;;;;;;;17.84;68.89;100301.41;5085474;28;1557;-46
2021/12/11 09:08:10;;;;;;;;;;;;;;;17.77;69.30;100296.75;5077476;28;1910;-46
2021/12/11 09:10:38;;;;;;;;;;;;;;;17.74;69.19;100297.84;5085630;28;1529;-46
2021/12/11 09:13:08;;;;;;;;;;;;;;;17.87;68.86;100293.13;5086411;28;2169;-49
2021/12/11 09:15:37;;;;;;;;;;;;;;;17.75;69.40;100301.41;5046557;28;10926;-46
2021/12/11 09:18:04;;;;;;;;;;;;;;;17.78;69.23;100303.78;5080758;28;1533;-47
2021/12/11 09:20:35;;;;;;;;;;;;;;;17.77;69.89;100268.16;5083859;28;1252;-46
2021/12/11 09:23:06;;;;;;;;;;;;;;;17.80;69.18;100267.88;5081503;28;1533;-46
2021/12/11 09:25:35;;;;;;;;;;;;;;;17.83;69.21;100264.97;5081544;28;1605;-46
2021/12/11 09:28:04;;;;;;;;;;;;;;;17.94;69.04;100250.59;5085874;28;1906;-46
2021/12/11 09:30:33;;;;;;;;;;;;;;;18.03;68.70;100248.91;5085115;28;1453;-46
2021/12/11 09:33:01;;;;;;;;;;;;;;;18.39;67.57;100233.09;5087520;28;1589;-47
2021/12/11 09:35:29;;;;;;;;;;;;;;;18.36;67.76;100223.50;5085352;28;2297;-46
2021/12/11 09:37:57;;;;;;;;;;;;;;;18.29;68.64;100231.28;5082723;28;1652;-46
2021/12/11 09:40:31;;;;;;;;;;;;;;;18.14;68.42;100227.34;5090029;28;1620;-46
2021/12/11 09:42:57;;;;;;;;;;;;;;;18.18;68.53;100234.09;5085354;28;1598;-46
2021/12/11 09:45:27;;;;;;;;;;;;;;;18.27;68.41;100241.28;5088449;28;1915;-46
2021/12/11 09:48:05;;;;;;;;;;;;;;;18.32;67.67;100215.91;5087290;28;1976;-46
2021/12/11 09:50:41;;;;;;;;;;;;;;;18.19;68.30;100233.13;5085239;28;1343;-46
2021/12/11 09:53:07;;;;;;;;;;;;;;;18.31;68.24;100208.88;5089607;28;1502;-45
2021/12/11 09:55:37;;;;;;;;;;;;;;;18.43;68.09;100223.78;5092151;28;1757;-46
2021/12/11 09:58:05;;;;;;;;;;;;;;;18.21;68.23;100222.28;5090624;28;1493;-45
2021/12/11 10:00:35;;;;;;;;;;;;;;;18.27;68.96;100233.25;5091387;28;1595;-46
2021/12/11 10:03:04;;;;;;;;;;;;;;;18.13;67.86;100200.75;5087431;28;1599;-45
2021/12/11 10:05:36;;;;;;;;;;;;;;;18.16;68.24;100212.00;5087463;28;1445;-46
2021/12/11 10:08:30;;;;;;;;;;;;;;;18.36;68.25;100203.91;5097703;28;1990;-45
2021/12/11 10:11:04;;;;;;;;;;;;;;;18.25;67.87;100195.06;5086265;28;1516;-45
2021/12/11 10:13:31;;;;;;;;;;;;;;;18.20;68.49;100186.63;5091644;28;2102;-45
2021/12/11 10:16:00;;;;;;;;;;;;;;;18.39;68.36;100195.63;5088111;28;1650;-45
2021/12/11 10:18:29;;;;;;;;;;;;;;;18.42;68.96;100206.00;5088953;28;1762;-45
2021/12/11 10:20:59;;;;;;;;;;;;;;;18.24;70.50;100197.88;5077778;28;1887;-46
2021/12/11 10:23:27;;;;;;;;;;;;;;;18.35;70.57;100200.41;5082776;28;1982;-45
2021/12/11 10:25:54;;;;;;;;;;;;;;;18.39;70.01;100195.63;5090627;28;2050;-45
2021/12/11 10:28:23;;;;;;;;;;;;;;;18.39;69.80;100187.59;5098649;28;1906;-46
2021/12/11 10:30:53;;;;;;;;;;;;;;;18.55;70.16;100198.50;5082409;28;1887;-45
2021/12/11 10:33:23;;;;;;;;;;;;;;;18.29;70.29;100190.28;5089048;28;1578;-46
2021/12/11 10:35:52;;;;;;;;;;;;;;;18.29;71.08;100191.13;5090772;28;1646;-46
2021/12/11 10:38:20;;;;;;;;;;;;;;;18.22;71.58;100186.50;5092938;28;1767;-45
2021/12/11 10:40:48;;;;;;;;;;;;;;;18.37;71.52;100176.19;5092183;28;1576;-47
2021/12/11 10:43:16;;;;;;;;;;;;;;;18.51;71.74;100183.72;5089358;28;1585;-46
2021/12/11 10:45:43;;;;;;;;;;;;;;;18.52;72.33;100174.69;5092180;28;1509;-46
2021/12/11 10:48:11;;;;;;;;;;;;;;;18.45;71.83;100162.91;5084764;28;1989;-45
2021/12/11 10:50:40;;;;;;;;;;;;;;;18.64;71.96;100167.31;5091467;28;1449;-46
2021/12/11 10:53:08;;;;;;;;;;;;;;;18.65;71.92;100151.09;5083810;28;1930;-47
2021/12/11 10:55:35;;;;;;;;;;;;;;;18.58;71.28;100146.50;5088572;28;1628;-46
2021/12/11 10:58:04;;;;;;;;;;;;;;;18.44;72.07;100150.50;5096162;28;1628;-45
2021/12/11 11:00:34;;;;;;;;;;;;;;;18.57;72.08;100151.00;5091928;28;1593;-45
2021/12/11 11:03:00;;;;;;;;;;;;;;;18.61;71.92;100157.75;5089430;28;2239;-46
2021/12/11 11:05:29;;;;;;;;;;;;;;;18.37;72.68;100154.75;5083051;28;1472;-47
2021/12/11 11:07:57;;;;;;;;;;;;;;;18.72;71.61;100142.47;5048710;28;1977;-46
2021/12/11 11:10:25;;;;;;;;;;;;;;;18.38;72.14;100145.72;5049763;28;1561;-45
2021/12/11 11:12:53;;;;;;;;;;;;;;;18.35;73.44;100146.03;5041329;28;1827;-45
2021/12/11 11:15:21;;;;;;;;;;;;;;;18.29;74.55;100137.59;5051459;28;1587;-45
2021/12/11 11:17:49;;;;;;;;;;;;;;;18.31;73.00;100131.25;5054636;28;1788;-45
2021/12/11 11:20:17;;;;;;;;;;;;;;;18.12;73.75;100141.00;5043412;28;1085;-45
2021/12/11 11:22:45;;;;;;;;;;;;;;;18.44;72.51;100123.72;5056329;28;1985;-45
2021/12/11 11:25:15;;;;;;;;;;;;;;;18.27;73.30;100128.88;5049904;28;1655;-46
2021/12/11 11:27:43;;;;;;;;;;;;;;;18.33;73.32;100123.94;5043725;28;1977;-45
2021/12/11 11:30:12;;;;;;;;;;;;;;;18.58;72.68;100125.94;5043478;28;1765;-44
2021/12/11 11:32:39;;;;;;;;;;;;;;;18.46;72.45;100127.09;5036557;28;1985;-44
2021/12/11 11:35:09;;;;;;;;;;;;;;;18.41;73.46;100130.22;5043575;28;1827;-44
2021/12/11 11:37:36;;;;;;;;;;;;;;;18.49;73.56;100122.28;5045623;28;1834;-43
2021/12/11 11:40:04;;;;;;;;;;;;;;;18.72;71.95;100129.09;5047832;28;1935;-44
2021/12/11 11:42:32;;;;;;;;;;;;;;;18.66;71.65;100120.69;5054216;28;1596;-45
2021/12/11 11:45:00;;;;;;;;;;;;;;;18.83;70.97;100132.44;5041216;28;1663;-45
2021/12/11 11:47:27;;;;;;;;;;;;;;;18.97;71.15;100114.19;5051295;28;1905;-45
2021/12/11 11:49:58;;;;;;;;;;;;;;;18.84;73.17;100127.91;5049060;28;1880;-44
2021/12/11 11:52:25;;;;;;;;;;;;;;;18.95;72.59;100124.22;5037149;28;2196;-45
2021/12/11 11:54:53;;;;;;;;;;;;;;;19.14;72.73;100116.03;5044648;28;1820;-44
2021/12/11 11:57:21;;;;;;;;;;;;;;;19.18;73.16;100104.03;5046225;28;1650;-45
2021/12/11 11:59:49;;;;;;;;;;;;;;;19.10;73.93;100114.66;5043286;28;1637;-44
2021/12/11 12:02:17;;;;;;;;;;;;;;;19.20;72.94;100115.44;5045998;28;1766;-45
2021/12/11 12:04:45;;;;;;;;;;;;;;;18.95;73.98;100121.53;5036219;28;1979;-44
2021/12/11 12:07:12;;;;;;;;;;;;;;;18.89;73.46;100112.25;5097480;28;1992;-45
2021/12/11 12:09:40;;;;;;;;;;;;;;;18.83;74.63;100119.03;5081123;28;1647;-44
2021/12/11 12:12:09;;;;;;;;;;;;;;;18.79;73.74;100117.66;5081016;28;2056;-45
2021/12/11 12:14:36;;;;;;;;;;;;;;;18.67;74.94;100098.25;5082745;28;1848;-45
2021/12/11 12:17:05;;;;;;;;;;;;;;;18.73;74.65;100091.44;5086569;28;1595;-45
2021/12/11 12:19:31;;;;;;;;;;;;;;;18.74;74.68;100092.28;5078118;28;1588;-44
2021/12/11 12:21:59;;;;;;;;;;;;;;;18.96;74.02;100091.91;5082029;28;1593;-44
2021/12/11 12:24:28;;;;;;;;;;;;;;;19.02;72.77;100083.25;5087928;28;1731;-44
2021/12/11 12:26:55;;;;;;;;;;;;;;;18.80;73.78;100076.50;5089075;28;1500;-44
2021/12/11 12:29:22;;;;;;;;;;;;;;;18.83;73.83;100076.19;5085140;28;2007;-45
2021/12/11 12:31:51;;;;;;;;;;;;;;;18.71;74.46;100089.91;5086718;28;1678;-45
2021/12/11 12:34:20;;;;;;;;;;;;;;;18.86;72.96;100075.03;5087177;28;1638;-45
2021/12/11 12:36:47;;;;;;;;;;;;;;;19.01;72.83;100089.59;5088557;28;1438;-46
2021/12/11 12:39:16;;;;;;;;;;;;;;;19.15;72.29;100082.03;5091807;28;1973;-44
2021/12/11 12:41:45;;;;;;;;;;;;;;;19.34;73.82;100081.00;5084404;28;1525;-45
2021/12/11 12:44:19;;;;;;;;;;;;;;;19.15;74.18;100079.34;5083520;28;1573;-44
2021/12/11 12:46:50;;;;;;;;;;;;;;;18.94;73.57;100077.81;5083172;28;1545;-44
2021/12/11 12:49:23;;;;;;;;;;;;;;;18.91;74.71;100086.16;5086592;28;1979;-44
2021/12/11 12:51:52;;;;;;;;;;;;;;;18.94;74.91;100101.94;5091663;28;1121;-45
2021/12/11 12:54:22;;;;;;;;;;;;;;;19.10;75.51;100092.34;5080379;28;1718;-45
2021/12/11 12:56:50;;;;;;;;;;;;;;;18.76;75.83;100085.81;5084521;28;1616;-45
2021/12/11 12:59:20;;;;;;;;;;;;;;;18.65;76.86;100088.69;5084675;28;1555;-45
2021/12/11 13:01:51;;;;;;;;;;;;;;;18.58;76.90;100061.66;5086800;28;1866;-43
2021/12/11 13:04:34;;;;;;;;;;;;;;;18.62;76.07;100078.25;5088711;28;1716;-44